»·PEaware :: N321KL KSNA-KSNA

N321KL :: KSNA-KSNA

FLIGHT INFORMATION

Flight Status: Arrived
Operator: Privately registered:
United States
More flights under this callsign
Pilot: Rafael F. (17538)
Aircraft: CESSNA 172 SKYHAWK
(C172)
More flights by this aircraft type
Origin: KSNA John Wayne-Orange Co
United States
Destination: KSNA John Wayne-Orange Co
United States
More flights between these airports :: More routes between these airports
Route: +SLI
File this flight plan on PilotEdge
Remarks: I1 Rating
Altitude:
(Current/Filed)
3,000ft
Speed:
(Current/Filed)
115kts
Departed: 10-Jan-18 06:21 PM
Arrived: 10-Jan-18 06:44 PM
Distance/Time
Traveled:
0nm/0:23
Distance/Time
To Go:
Arrived

Flight Plot

Page will automatically refresh every two minutes.


Map Options




Map Legend


Flown Route
Filed Route
Departure Airport
Arrival Airport
Navaid (VOR, NDB)
Fix

Horizontal Profiles

Position Reports

Time Latitude Longitude Heading Altitude Ground
Speed
10-Jan-18 18:03 33.675956 -117.871155 218 60ft 0kts
10-Jan-18 18:04 33.675956 -117.871155 218 60ft 0kts
10-Jan-18 18:05 33.675956 -117.871155 218 60ft 0kts
10-Jan-18 18:06 33.675956 -117.871155 218 60ft 0kts
10-Jan-18 18:07 33.675956 -117.871155 218 60ft 0kts
10-Jan-18 18:08 33.675956 -117.871155 218 60ft 0kts
10-Jan-18 18:09 33.675956 -117.871155 218 60ft 0kts
10-Jan-18 18:10 33.675956 -117.871155 218 60ft 0kts
10-Jan-18 18:11 33.675956 -117.871155 218 60ft 0kts
10-Jan-18 18:12 33.675956 -117.871155 218 60ft 0kts
10-Jan-18 18:13 33.675956 -117.871155 218 60ft 0kts
10-Jan-18 18:14 33.675956 -117.871155 218 60ft 0kts
10-Jan-18 18:15 33.675956 -117.871155 218 60ft 0kts
10-Jan-18 18:16 33.675956 -117.871155 218 60ft 0kts
10-Jan-18 18:17 33.675956 -117.871155 218 60ft 0kts
10-Jan-18 18:18 33.675956 -117.871155 218 60ft 0kts
10-Jan-18 18:19 33.675956 -117.871155 218 60ft 0kts
10-Jan-18 18:20 33.675956 -117.871155 218 60ft 0kts
10-Jan-18 18:21 33.675956 -117.871155 218 60ft 0kts
10-Jan-18 18:22 33.675956 -117.871155 218 60ft 0kts
10-Jan-18 18:23 33.675819 -117.870599 111 60ft 7kts
10-Jan-18 18:24 33.678477 -117.868577 28 60ft 15kts
10-Jan-18 18:25 33.681256 -117.866939 58 60ft 3kts
10-Jan-18 18:26 33.681220 -117.866399 118 60ft 0kts
10-Jan-18 18:27 33.678442 -117.867050 207 60ft 63kts
10-Jan-18 18:28 33.657165 -117.887188 231 615ft 110kts
10-Jan-18 18:29 33.638315 -117.916127 231 1313ft 110kts
10-Jan-18 18:30 33.620458 -117.943611 231 2211ft 97kts
10-Jan-18 18:31 33.618544 -117.969819 331 3012ft 107kts
10-Jan-18 18:32 33.650961 -117.959529 21 2988ft 129kts
10-Jan-18 18:33 33.682398 -117.943987 22 2988ft 118kts
10-Jan-18 18:34 33.712592 -117.928970 22 2988ft 118kts
10-Jan-18 18:35 33.742768 -117.913891 22 2988ft 118kts
10-Jan-18 18:36 33.773037 -117.898689 22 2988ft 118kts
10-Jan-18 18:37 33.803155 -117.883502 22 2988ft 118kts
10-Jan-18 18:38 33.833349 -117.868203 22 2988ft 118kts
10-Jan-18 18:39 33.863464 -117.852862 22 2988ft 118kts
10-Jan-18 18:40 33.884618 -117.828143 92 2986ft 117kts
10-Jan-18 18:41 33.883355 -117.788746 91 2988ft 118kts
10-Jan-18 18:42 33.873432 -117.754860 168 2981ft 117kts
10-Jan-18 18:43 33.843597 -117.755810 180 2988ft 102kts
10-Jan-18 18:44 33.821211 -117.770330 238 2988ft 100kts
10-Jan-18 18:45 33.799723 -117.796485 210 2416ft 120kts
10-Jan-18 18:46 33.768692 -117.813139 202 2500ft 123kts
10-Jan-18 18:47 33.737636 -117.829725 203 2194ft 113kts
10-Jan-18 18:48 33.706968 -117.849208 207 618ft 110kts
10-Jan-18 18:49 33.684427 -117.863306 206 174ft 80kts
10-Jan-18 18:50 33.678085 -117.868302 293 60ft 0kts
10-Jan-18 18:51 33.678098 -117.868342 288 60ft 1kts
10-Jan-18 18:52 33.676329 -117.870453 254 60ft 13kts

Navigation Log

Ident Type
Flight plan parsing failed, navigation log unavailable